createdAt,value
2023-04-20T00:00:17.806Z,8.82
2023-04-20T00:02:46.397Z,8.13
2023-04-20T00:05:14.116Z,10.33
2023-04-20T00:07:41.752Z,11.10
2023-04-20T00:10:12.168Z,9.32
2023-04-20T00:12:39.891Z,9.48
2023-04-20T00:15:07.827Z,10.10
2023-04-20T00:17:36.662Z,8.33
2023-04-20T00:20:05.358Z,11.77
2023-04-20T00:22:32.982Z,11.55
2023-04-20T00:25:00.574Z,10.93
2023-04-20T00:27:28.876Z,11.52
2023-04-20T00:29:56.570Z,13.20
2023-04-20T00:32:24.295Z,10.30
2023-04-20T00:34:51.879Z,11.00
2023-04-20T00:37:19.432Z,9.02
2023-04-20T00:39:47.246Z,10.68
2023-04-20T00:42:15.146Z,11.47
2023-04-20T00:44:42.679Z,9.45
2023-04-20T00:50:31.780Z,9.45
2023-04-20T00:52:59.667Z,10.98
2023-04-20T00:55:28.472Z,12.43
2023-04-20T00:57:56.445Z,13.43
2023-04-20T01:00:24.463Z,11.13
2023-04-20T01:02:52.143Z,10.70
2023-04-20T01:05:20.561Z,14.13
2023-04-20T01:07:49.611Z,11.80
2023-04-20T01:10:17.185Z,10.70
2023-04-20T01:12:44.999Z,11.95
2023-04-20T01:15:12.724Z,26.63
2023-04-20T01:18:03.783Z,11.60
2023-04-20T01:20:31.593Z,11.70
2023-04-20T01:22:59.116Z,12.80
2023-04-20T01:25:26.750Z,10.27
2023-04-20T01:27:54.236Z,13.18
2023-04-20T01:30:23.059Z,12.80
2023-04-20T01:32:51.444Z,11.47
2023-04-20T01:35:19.148Z,10.45
2023-04-20T01:37:46.729Z,13.18
2023-04-20T01:40:15.228Z,11.30
2023-04-20T01:42:42.838Z,12.05
2023-04-20T01:45:10.597Z,12.60
2023-04-20T01:47:38.205Z,23.38
2023-04-20T01:50:08.593Z,9.73
2023-04-20T01:52:36.236Z,11.48
2023-04-20T01:55:03.944Z,11.98
2023-04-20T01:57:31.640Z,10.43
2023-04-20T01:59:59.179Z,13.90
2023-04-20T02:02:27.860Z,11.07
2023-04-20T02:04:55.616Z,12.48
2023-04-20T02:07:23.237Z,11.23
2023-04-20T02:09:50.897Z,10.53
2023-04-20T02:12:18.454Z,13.77
2023-04-20T02:14:46.140Z,12.10
2023-04-20T02:17:15.097Z,9.63
2023-04-20T02:19:42.829Z,11.20
2023-04-20T02:22:10.691Z,10.77
2023-04-20T02:24:38.436Z,12.02
2023-04-20T02:27:06.029Z,12.88
2023-04-20T02:29:33.555Z,10.25
2023-04-20T02:32:01.270Z,9.60
2023-04-20T02:34:28.795Z,12.23
2023-04-20T02:36:57.743Z,9.68
2023-04-20T02:39:25.764Z,11.00
2023-04-20T02:41:55.075Z,13.10
2023-04-20T02:44:22.719Z,9.77
2023-04-20T02:46:51.117Z,8.83
2023-04-20T02:49:19.663Z,11.38
2023-04-20T02:51:47.716Z,12.20
2023-04-20T02:54:15.347Z,10.25
2023-04-20T02:56:43.032Z,8.82
2023-04-20T02:59:11.176Z,8.80
2023-04-20T03:01:38.865Z,8.80
2023-04-20T03:04:13.419Z,10.70
2023-04-20T03:06:50.736Z,8.30
2023-04-20T03:09:25.483Z,13.82
2023-04-20T03:12:02.380Z,9.93
2023-04-20T03:14:44.610Z,11.05
2023-04-20T03:17:12.536Z,10.63
2023-04-20T03:19:40.779Z,9.68
2023-04-20T03:22:11.332Z,9.98
2023-04-20T03:24:39.004Z,11.17
2023-04-20T03:27:17.361Z,10.63
2023-04-20T03:30:03.536Z,10.23
2023-04-20T03:32:34.351Z,11.15
2023-04-20T03:35:02.108Z,9.73
2023-04-20T03:37:29.770Z,12.50
2023-04-20T03:39:57.323Z,10.23
2023-04-20T03:42:26.082Z,9.73
2023-04-20T03:44:55.560Z,12.27
2023-04-20T03:47:23.157Z,11.70
2023-04-20T03:49:53.763Z,11.40
2023-04-20T03:52:21.622Z,8.32
2023-04-20T03:54:49.373Z,8.93
2023-04-20T03:57:17.843Z,9.45
2023-04-20T03:59:48.627Z,8.82
2023-04-20T04:11:32.715Z,8.52
2023-04-20T04:14:01.277Z,8.52
2023-04-20T04:16:29.732Z,7.70
2023-04-20T04:18:57.562Z,8.57
2023-04-20T04:21:25.567Z,8.32
2023-04-20T04:23:59.244Z,10.35
2023-04-20T04:26:58.624Z,10.05
2023-04-20T04:29:27.968Z,8.00
2023-04-20T04:31:59.019Z,9.00
2023-04-20T04:34:29.968Z,9.77
2023-04-20T04:36:58.117Z,11.75
2023-04-20T04:39:37.542Z,9.68
2023-04-20T04:42:13.220Z,9.20
2023-04-20T04:44:43.683Z,8.33
2023-04-20T04:47:17.701Z,8.60
2023-04-20T04:49:47.323Z,9.27
2023-04-20T04:52:17.724Z,11.30
2023-04-20T04:54:45.324Z,12.02
2023-04-20T04:57:12.926Z,11.50
2023-04-20T04:59:40.865Z,9.73
2023-04-20T05:02:08.450Z,11.40
2023-04-20T05:04:36.227Z,11.35
2023-04-20T05:07:03.948Z,7.78
2023-04-20T05:09:33.695Z,10.40
2023-04-20T05:12:01.235Z,9.57
2023-04-20T05:14:29.110Z,9.88
2023-04-20T05:16:56.748Z,8.52
2023-04-20T05:19:24.398Z,6.90
2023-04-20T05:21:51.992Z,9.30
2023-04-20T05:24:19.632Z,14.25
2023-04-20T05:26:47.215Z,9.90
2023-04-20T05:29:16.499Z,13.30
2023-04-20T05:31:45.320Z,12.18
2023-04-20T05:34:12.967Z,10.37
2023-04-20T05:36:41.281Z,9.77
2023-04-20T05:39:09.157Z,11.45
2023-04-20T05:41:36.662Z,8.70
2023-04-20T05:44:04.289Z,8.32
2023-04-20T05:46:31.827Z,10.37
2023-04-20T05:48:59.403Z,9.00
2023-04-20T05:51:30.489Z,7.72
2023-04-20T05:53:58.373Z,9.23
2023-04-20T05:56:25.874Z,7.82
2023-04-20T05:58:54.887Z,9.83
2023-04-20T06:01:22.441Z,8.38
2023-04-20T06:03:50.283Z,7.65
2023-04-20T06:06:17.982Z,7.63
2023-04-20T06:08:45.608Z,6.50
2023-04-20T06:11:13.173Z,8.37
2023-04-20T06:13:40.699Z,6.50
2023-04-20T06:16:11.016Z,7.05
2023-04-20T06:18:38.880Z,7.50
2023-04-20T06:21:10.294Z,7.55
2023-04-20T06:23:38.406Z,7.67
2023-04-20T06:26:08.923Z,7.00
2023-04-20T06:28:39.721Z,7.15
2023-04-20T06:31:07.807Z,7.47
2023-04-20T06:33:35.689Z,6.00
2023-04-20T06:36:07.340Z,6.23
2023-04-20T06:38:34.902Z,9.07
2023-04-20T06:41:02.889Z,10.07
2023-04-20T06:43:31.168Z,7.57
2023-04-20T06:45:59.352Z,9.23
2023-04-20T06:48:31.682Z,10.63
2023-04-20T06:51:01.814Z,7.03
2023-04-20T06:53:29.353Z,9.65
2023-04-20T06:55:57.306Z,7.80
2023-04-20T06:58:25.167Z,6.60
2023-04-20T07:00:52.788Z,7.90
2023-04-20T07:03:20.671Z,5.82
2023-04-20T07:05:48.415Z,8.27
2023-04-20T07:08:16.213Z,8.07
2023-04-20T07:10:43.867Z,6.18
2023-04-20T07:13:11.424Z,7.07
2023-04-20T07:15:38.968Z,7.10
2023-04-20T07:18:06.727Z,6.65
2023-04-20T07:20:34.370Z,7.72
2023-04-20T07:23:01.910Z,8.32
2023-04-20T07:25:31.654Z,7.13
2023-04-20T07:27:59.479Z,5.85
2023-04-20T07:30:27.235Z,7.50
2023-04-20T07:32:54.885Z,7.85
2023-04-20T07:35:22.730Z,7.90
2023-04-20T07:37:50.674Z,7.60
2023-04-20T07:40:18.386Z,6.75
2023-04-20T07:42:46.088Z,6.22
2023-04-20T07:48:12.537Z,8.48
2023-04-20T07:50:40.598Z,9.40
2023-04-20T07:53:08.305Z,8.60
2023-04-20T07:55:36.137Z,6.50
2023-04-20T07:58:03.780Z,5.85
2023-04-20T08:00:31.298Z,7.60
2023-04-20T08:02:59.531Z,6.10
2023-04-20T08:05:27.751Z,7.82
2023-04-20T08:07:55.351Z,6.35
2023-04-20T08:10:23.180Z,8.70
2023-04-20T08:13:08.964Z,7.90
2023-04-20T08:15:39.554Z,8.07
2023-04-20T08:18:07.169Z,6.03
2023-04-20T08:20:34.869Z,7.90
2023-04-20T08:23:02.683Z,5.85
2023-04-20T08:25:32.397Z,6.85
2023-04-20T08:28:00.031Z,7.67
2023-04-20T08:30:27.674Z,6.70
2023-04-20T08:32:55.286Z,6.93
2023-04-20T08:35:23.130Z,6.25
2023-04-20T08:37:50.807Z,5.55
2023-04-20T08:40:20.165Z,6.77
2023-04-20T08:42:47.744Z,4.13
2023-04-20T08:45:15.331Z,6.03
2023-04-20T08:47:43.185Z,5.22
2023-04-20T08:50:11.395Z,4.57
2023-04-20T08:52:39.831Z,6.27
2023-04-20T08:55:08.072Z,5.32
2023-04-20T08:57:35.582Z,7.00
2023-04-20T09:00:13.871Z,7.63
2023-04-20T09:02:50.968Z,7.93
2023-04-20T09:05:29.687Z,5.73
2023-04-20T09:08:06.518Z,5.65
2023-04-20T09:11:17.798Z,5.40
2023-04-20T09:13:49.889Z,5.28
2023-04-20T09:16:17.854Z,4.45
2023-04-20T09:18:56.274Z,4.80
2023-04-20T09:21:31.569Z,7.80
2023-04-20T09:24:08.774Z,6.05
2023-04-20T09:26:57.804Z,5.25
2023-04-20T09:35:41.165Z,4.68
2023-04-20T09:38:09.905Z,5.75
2023-04-20T09:40:38.081Z,5.28
2023-04-20T09:43:46.058Z,4.68
2023-04-20T09:46:13.894Z,4.37
2023-04-20T09:48:41.690Z,3.60
2023-04-20T09:51:09.456Z,8.20
2023-04-20T09:53:37.292Z,4.25
2023-04-20T09:56:06.985Z,5.18
2023-04-20T09:58:35.207Z,5.93
2023-04-20T10:01:02.817Z,4.50
2023-04-20T10:03:30.814Z,5.53
2023-04-20T10:05:58.551Z,5.15
2023-04-20T10:08:26.695Z,4.35
2023-04-20T10:10:54.283Z,4.80
2023-04-20T10:13:33.530Z,6.32
2023-04-20T10:16:01.247Z,4.72
2023-04-20T10:18:29.190Z,5.40
2023-04-20T10:21:11.041Z,4.50
2023-04-20T10:23:52.079Z,4.00
2023-04-20T10:26:19.927Z,3.75
2023-04-20T10:28:47.757Z,4.88
2023-04-20T10:31:17.142Z,4.85
2023-04-20T10:33:55.693Z,4.07
2023-04-20T10:36:31.372Z,6.07
2023-04-20T10:39:01.581Z,4.90
2023-04-20T10:41:29.181Z,3.83
2023-04-20T10:44:07.543Z,6.43
2023-04-20T10:46:35.410Z,3.63
2023-04-20T10:49:03.711Z,4.03
2023-04-20T10:51:31.648Z,3.60
2023-04-20T10:54:08.177Z,4.15
2023-04-20T10:56:46.768Z,4.55
2023-04-20T10:59:22.509Z,5.05
2023-04-20T11:01:51.331Z,7.33
2023-04-20T11:04:19.369Z,3.28
2023-04-20T11:06:48.595Z,3.25
2023-04-20T11:09:26.701Z,5.18
2023-04-20T11:12:05.761Z,4.13
2023-04-20T11:14:50.383Z,3.37
2023-04-20T11:17:18.147Z,3.97
2023-04-20T11:19:47.163Z,3.95
2023-04-20T11:22:23.088Z,3.90
2023-04-20T11:24:50.745Z,2.83
2023-04-20T11:27:24.876Z,5.53
2023-04-20T11:29:59.686Z,3.30
2023-04-20T11:32:27.542Z,4.05
2023-04-20T11:35:07.536Z,5.03
2023-04-20T11:37:47.816Z,3.35
2023-04-20T11:40:15.517Z,3.13
2023-04-20T11:42:43.949Z,2.67
2023-04-20T11:45:11.796Z,2.70
2023-04-20T11:47:41.614Z,2.97
2023-04-20T11:50:10.475Z,4.28
2023-04-20T11:52:38.130Z,4.50
2023-04-20T11:55:06.307Z,2.92
2023-04-20T11:57:34.726Z,3.97
2023-04-20T12:00:02.428Z,2.85
2023-04-20T12:02:41.567Z,5.45
2023-04-20T12:05:09.800Z,2.40
2023-04-20T12:07:37.426Z,2.47
2023-04-20T12:10:06.407Z,6.00
2023-04-20T12:12:34.566Z,2.40
2023-04-20T12:15:02.196Z,3.10
2023-04-20T12:17:29.776Z,5.83
2023-04-20T12:19:58.043Z,3.75
2023-04-20T12:22:25.645Z,3.22
2023-04-20T12:24:53.240Z,2.17
2023-04-20T12:27:20.796Z,6.32
2023-04-20T12:29:48.607Z,2.67
2023-04-20T12:32:16.143Z,3.35
2023-04-20T12:34:45.646Z,2.45
2023-04-20T12:37:15.978Z,2.28
2023-04-20T12:39:43.581Z,3.33
2023-04-20T12:42:11.071Z,2.97
2023-04-20T12:44:38.635Z,5.38
2023-04-20T12:47:06.473Z,3.90
2023-04-20T12:49:34.301Z,4.95
2023-04-20T12:52:02.012Z,2.58
2023-04-20T12:54:29.638Z,2.63
2023-04-20T12:56:57.192Z,3.25
2023-04-20T12:59:24.822Z,3.15
2023-04-20T13:01:52.461Z,4.13
2023-04-20T13:04:20.494Z,2.97
2023-04-20T13:06:49.226Z,2.27
2023-04-20T13:09:16.889Z,7.68
2023-04-20T13:11:44.777Z,3.72
2023-04-20T13:14:12.441Z,3.00
2023-04-20T13:16:40.569Z,2.80
2023-04-20T13:19:08.205Z,2.03
2023-04-20T13:21:35.917Z,7.18
2023-04-20T13:24:03.793Z,2.50
2023-04-20T13:26:31.703Z,2.72
2023-04-20T13:28:59.421Z,3.45
2023-04-20T13:31:27.275Z,3.90
2023-04-20T13:33:55.045Z,2.70
2023-04-20T13:36:28.355Z,3.30
2023-04-20T13:38:56.519Z,3.28
2023-04-20T13:41:24.091Z,5.70
2023-04-20T13:43:51.736Z,3.27
2023-04-20T13:46:20.254Z,2.72
2023-04-20T13:48:47.938Z,2.72
2023-04-20T13:51:15.495Z,5.25
2023-04-20T13:53:43.204Z,4.57
2023-04-20T13:56:11.011Z,3.50
2023-04-20T13:58:38.624Z,4.65
2023-04-20T14:01:11.251Z,4.47
2023-04-20T14:03:39.174Z,4.03
2023-04-20T14:06:06.918Z,5.28
2023-04-20T14:08:34.529Z,4.87
2023-04-20T14:11:02.476Z,3.90
2023-04-20T14:13:30.039Z,6.55
2023-04-20T14:15:57.755Z,3.15
2023-04-20T14:18:25.808Z,3.28
2023-04-20T14:20:53.475Z,2.67
2023-04-20T14:23:20.998Z,4.45
2023-04-20T14:25:48.587Z,4.10
2023-04-20T14:28:17.808Z,4.15
2023-04-20T14:30:48.508Z,2.83
2023-04-20T14:33:16.307Z,4.00
2023-04-20T14:35:43.941Z,3.28
2023-04-20T14:38:11.679Z,7.97
2023-04-20T14:40:39.312Z,3.10
2023-04-20T14:43:06.912Z,3.90
2023-04-20T14:45:34.495Z,2.50
2023-04-20T14:48:02.129Z,3.15
2023-04-20T14:50:29.684Z,8.77
2023-04-20T14:52:57.971Z,4.55
2023-04-20T14:55:26.209Z,3.85
2023-04-20T14:57:55.435Z,5.30
2023-04-20T15:00:24.741Z,5.35
2023-04-20T15:02:53.171Z,4.38
2023-04-20T15:05:21.014Z,3.80
2023-04-20T15:07:50.970Z,5.88
2023-04-20T15:10:20.505Z,3.37
2023-04-20T15:12:48.777Z,3.03
2023-04-20T15:15:17.155Z,4.88
2023-04-20T15:17:47.519Z,2.88
2023-04-20T15:20:15.649Z,4.15
2023-04-20T15:22:44.002Z,3.93
2023-04-20T15:25:11.850Z,3.03
2023-04-20T15:27:39.528Z,3.70
2023-04-20T15:30:07.947Z,3.13
2023-04-20T15:32:35.593Z,4.00
2023-04-20T15:35:03.591Z,4.63
2023-04-20T15:37:31.475Z,3.25
2023-04-20T15:39:59.291Z,2.97
2023-04-20T15:42:27.654Z,3.30
2023-04-20T15:44:55.433Z,6.30
2023-04-20T15:47:22.984Z,3.80
2023-04-20T15:49:50.608Z,3.55
2023-04-20T15:52:18.143Z,3.92
2023-04-20T15:54:47.173Z,3.95
2023-04-20T15:57:14.753Z,4.63
2023-04-20T15:59:42.432Z,2.47
2023-04-20T16:02:10.036Z,4.55
2023-04-20T16:04:37.740Z,3.08
2023-04-20T16:07:05.552Z,3.75
2023-04-20T16:09:33.096Z,3.15
2023-04-20T16:12:03.110Z,3.10
2023-04-20T16:14:30.904Z,2.42
2023-04-20T16:17:02.631Z,3.45
2023-04-20T16:19:31.656Z,2.63
2023-04-20T16:21:59.290Z,3.22
2023-04-20T16:24:27.108Z,3.80
2023-04-20T16:26:57.160Z,2.30
2023-04-20T16:29:24.727Z,2.92
2023-04-20T16:31:52.536Z,2.78
2023-04-20T16:34:20.443Z,2.45
2023-04-20T16:36:50.237Z,2.37
2023-04-20T16:39:18.676Z,2.20
2023-04-20T16:41:46.539Z,1.90
2023-04-20T16:44:14.601Z,1.92
2023-04-20T16:46:42.383Z,3.42
2023-04-20T16:49:10.183Z,2.10
2023-04-20T16:51:38.071Z,2.20
2023-04-20T16:54:05.809Z,3.67
2023-04-20T16:56:33.369Z,3.30
2023-04-20T16:59:01.099Z,2.67
2023-04-20T17:01:28.687Z,3.50
2023-04-20T17:03:56.435Z,3.10
2023-04-20T17:06:24.044Z,2.33
2023-04-20T17:08:51.882Z,7.32
2023-04-20T17:11:19.863Z,4.60
2023-04-20T17:13:47.473Z,1.90
2023-04-20T17:16:15.064Z,3.50
2023-04-20T17:18:42.654Z,1.80
2023-04-20T17:21:10.174Z,3.45
2023-04-20T17:23:37.772Z,4.13
2023-04-20T17:26:06.796Z,3.43
2023-04-20T17:28:34.436Z,3.30
2023-04-20T17:31:01.960Z,2.72
2023-04-20T17:33:29.968Z,2.40
2023-04-20T17:35:57.621Z,3.70
2023-04-20T17:38:25.183Z,3.90
2023-04-20T17:40:52.864Z,2.67
2023-04-20T17:43:20.513Z,5.22
2023-04-20T17:45:51.129Z,4.63
2023-04-20T17:48:18.795Z,3.35
2023-04-20T17:50:50.554Z,3.77
2023-04-20T17:53:18.229Z,5.03
2023-04-20T17:55:45.970Z,2.13
2023-04-20T17:58:13.715Z,3.00
2023-04-20T18:00:41.278Z,2.70
2023-04-20T18:03:09.521Z,3.53
2023-04-20T18:05:37.211Z,2.90
2023-04-20T18:08:05.105Z,4.95
2023-04-20T18:10:34.148Z,3.95
2023-04-20T18:13:01.747Z,3.08
2023-04-20T18:15:29.451Z,2.47
2023-04-20T18:17:57.108Z,2.17
2023-04-20T18:20:24.727Z,2.70
2023-04-20T18:22:52.368Z,1.80
2023-04-20T18:25:20.274Z,2.90
2023-04-20T18:27:47.905Z,2.27
2023-04-20T18:30:16.272Z,3.95
2023-04-20T18:32:44.072Z,3.38
2023-04-20T18:35:11.708Z,1.98
2023-04-20T18:37:39.380Z,3.50
2023-04-20T18:40:07.830Z,5.33
2023-04-20T18:42:35.414Z,3.22
2023-04-20T18:45:03.626Z,3.30
2023-04-20T18:47:32.019Z,2.88
2023-04-20T18:49:59.602Z,2.45
2023-04-20T18:52:27.226Z,4.57
2023-04-20T18:54:55.594Z,4.40
2023-04-20T19:29:07.755Z,3.05
2023-04-20T19:31:38.002Z,2.97
2023-04-20T19:34:06.482Z,2.38
2023-04-20T19:36:34.631Z,2.50
2023-04-20T19:39:02.522Z,3.95
2023-04-20T19:41:30.095Z,2.35
2023-04-20T19:43:59.678Z,2.10
2023-04-20T19:46:27.425Z,2.88
2023-04-20T19:48:54.983Z,3.10
2023-04-20T19:51:25.469Z,2.47
2023-04-20T19:53:53.389Z,2.47
2023-04-20T19:56:21.013Z,4.90
2023-04-20T19:58:48.652Z,4.30
2023-04-20T20:01:16.418Z,3.08
2023-04-20T20:03:44.283Z,3.38
2023-04-20T20:06:12.427Z,2.38
2023-04-20T20:08:49.238Z,2.87
2023-04-20T20:11:16.957Z,3.00
2023-04-20T20:14:25.109Z,4.53
2023-04-20T20:16:52.756Z,2.53
2023-04-20T20:19:38.630Z,2.88
2023-04-20T20:22:06.674Z,2.73
2023-04-20T20:24:48.036Z,3.58
2023-04-20T20:27:18.594Z,3.58
2023-04-20T20:29:46.194Z,3.38
2023-04-20T20:32:13.704Z,3.40
2023-04-20T20:34:42.848Z,2.07
2023-04-20T20:37:10.572Z,2.60
2023-04-20T20:39:38.176Z,4.03
2023-04-20T20:42:07.129Z,3.20
2023-04-20T20:44:39.748Z,3.00
2023-04-20T20:51:20.916Z,2.47
2023-04-20T20:53:48.501Z,2.55
2023-04-20T20:56:16.202Z,2.75
2023-04-20T20:58:43.734Z,3.13
2023-04-20T21:01:11.347Z,2.93
2023-04-20T21:03:39.281Z,4.32
2023-04-20T21:06:07.019Z,7.43
2023-04-20T21:08:34.701Z,4.20
2023-04-20T21:11:02.488Z,4.97
2023-04-20T21:13:30.069Z,5.03
2023-04-20T21:15:57.937Z,3.30
2023-04-20T21:18:25.640Z,4.22
2023-04-20T21:20:53.228Z,4.60
2023-04-20T21:23:20.827Z,3.22
2023-04-20T21:25:48.474Z,4.10
2023-04-20T21:28:16.049Z,3.92
2023-04-20T21:30:43.572Z,3.03
2023-04-20T21:33:11.341Z,4.03
2023-04-20T21:35:38.905Z,5.43
2023-04-20T21:38:06.466Z,6.97
2023-04-20T21:40:34.347Z,5.65
2023-04-20T21:43:02.063Z,4.32
2023-04-20T21:45:29.646Z,3.90
2023-04-20T21:47:57.524Z,3.50
2023-04-20T21:50:27.193Z,5.23
2023-04-20T21:52:55.289Z,3.85
2023-04-20T21:55:22.788Z,4.15
2023-04-20T21:57:50.968Z,2.92
2023-04-20T22:00:18.739Z,3.85
2023-04-20T22:02:46.541Z,4.13
2023-04-20T22:05:14.208Z,3.42
2023-04-20T22:07:41.905Z,3.38
2023-04-20T22:10:09.867Z,3.42
2023-04-20T22:12:40.881Z,5.03
2023-04-20T22:15:13.644Z,4.90
2023-04-20T22:17:42.097Z,6.32
2023-04-20T22:20:11.339Z,4.10
2023-04-20T22:22:39.487Z,3.88
2023-04-20T22:25:08.676Z,4.15
2023-04-20T22:27:37.820Z,4.87
2023-04-20T22:30:06.618Z,5.45
2023-04-20T22:32:34.183Z,4.82
2023-04-20T22:35:02.014Z,5.93
2023-04-20T22:37:29.604Z,5.57
2023-04-20T22:39:57.169Z,4.27
2023-04-20T22:42:24.762Z,4.38
2023-04-20T22:45:11.855Z,4.30
2023-04-20T22:47:54.638Z,4.63
2023-04-20T22:50:22.502Z,3.85
2023-04-20T22:52:50.548Z,7.13
2023-04-20T22:55:18.158Z,7.97
2023-04-20T22:57:45.742Z,6.05
2023-04-20T23:00:14.600Z,3.90
2023-04-20T23:02:45.208Z,4.18
2023-04-20T23:05:12.912Z,4.80
2023-04-20T23:07:40.508Z,4.10
2023-04-20T23:10:09.141Z,4.65
2023-04-20T23:12:36.898Z,6.47
2023-04-20T23:15:06.076Z,5.57
2023-04-20T23:17:33.642Z,4.73
2023-04-20T23:20:01.135Z,4.05
2023-04-20T23:22:28.613Z,5.38
2023-04-20T23:24:57.528Z,4.70
2023-04-20T23:27:25.131Z,4.72
2023-04-20T23:29:52.682Z,6.10
2023-04-20T23:32:20.298Z,4.75
2023-04-20T23:34:47.855Z,5.13
2023-04-20T23:37:15.949Z,5.07
2023-04-20T23:39:43.441Z,5.60
2023-04-20T23:42:12.049Z,8.67
2023-04-20T23:44:39.536Z,5.85
2023-04-20T23:47:07.100Z,7.72
2023-04-20T23:49:37.336Z,8.15
2023-04-20T23:52:05.759Z,7.03
2023-04-20T23:54:33.554Z,6.30
2023-04-20T23:57:01.247Z,6.10
2023-04-20T23:59:28.836Z,6.47
